sensor_id;sensor_type;location;lat;lon;timestamp;pressure;altitude;pressure_sealevel;temperature;humidity
19114;BME280;9689;51.052;13.772;2023-02-13T00:01:16;102531.09;;;5.72;90.67
19114;BME280;9689;51.052;13.772;2023-02-13T00:06:18;102527.84;;;5.77;90.93
19114;BME280;9689;51.052;13.772;2023-02-13T00:11:19;102534.69;;;5.75;91.14
19114;BME280;9689;51.052;13.772;2023-02-13T00:16:20;102533.69;;;5.72;91.48
19114;BME280;9689;51.052;13.772;2023-02-13T00:21:22;102518.34;;;5.76;91.82
19114;BME280;9689;51.052;13.772;2023-02-13T00:26:23;102514.09;;;5.78;91.43
19114;BME280;9689;51.052;13.772;2023-02-13T00:31:24;102516.53;;;5.74;91.50
19114;BME280;9689;51.052;13.772;2023-02-13T00:36:26;102516.44;;;5.72;91.83
19114;BME280;9689;51.052;13.772;2023-02-13T00:41:27;102516.41;;;5.71;91.63
19114;BME280;9689;51.052;13.772;2023-02-13T00:46:27;102513.03;;;5.73;90.96
19114;BME280;9689;51.052;13.772;2023-02-13T00:51:30;102522.47;;;5.71;90.93
19114;BME280;9689;51.052;13.772;2023-02-13T00:56:31;102512.25;;;5.74;91.46
19114;BME280;9689;51.052;13.772;2023-02-13T01:01:32;102516.44;;;5.72;91.09
19114;BME280;9689;51.052;13.772;2023-02-13T01:06:34;102524.06;;;5.67;91.81
19114;BME280;9689;51.052;13.772;2023-02-13T01:11:35;102526.69;;;5.69;91.78
19114;BME280;9689;51.052;13.772;2023-02-13T01:16:36;102527.84;;;5.77;91.65
19114;BME280;9689;51.052;13.772;2023-02-13T01:21:38;102517.84;;;5.62;91.64
19114;BME280;9689;51.052;13.772;2023-02-13T01:26:39;102525.00;;;5.70;92.07
19114;BME280;9689;51.052;13.772;2023-02-13T01:31:39;102513.16;;;5.76;92.01
19114;BME280;9689;51.052;13.772;2023-02-13T01:36:42;102509.69;;;5.76;91.43
19114;BME280;9689;51.052;13.772;2023-02-13T01:41:42;102513.78;;;5.69;91.82
19114;BME280;9689;51.052;13.772;2023-02-13T01:46:43;102499.59;;;5.58;91.57
19114;BME280;9689;51.052;13.772;2023-02-13T01:51:46;102507.66;;;5.67;91.62
19114;BME280;9689;51.052;13.772;2023-02-13T01:56:52;102499.06;;;5.68;91.81
19114;BME280;9689;51.052;13.772;2023-02-13T02:01:55;102501.88;;;5.74;91.07
19114;BME280;9689;51.052;13.772;2023-02-13T02:07:02;102500.22;;;5.76;91.80
19114;BME280;9689;51.052;13.772;2023-02-13T02:12:07;102494.31;;;5.80;91.16
19114;BME280;9689;51.052;13.772;2023-02-13T02:17:11;102498.06;;;5.88;91.37
19114;BME280;9689;51.052;13.772;2023-02-13T02:22:39;102490.25;;;5.87;91.39
19114;BME280;9689;51.052;13.772;2023-02-13T02:33:47;102493.19;;;5.96;91.67
19114;BME280;9689;51.052;13.772;2023-02-13T02:39:00;102496.50;;;5.92;91.07
19114;BME280;9689;51.052;13.772;2023-02-13T02:44:11;102490.63;;;5.98;90.92
19114;BME280;9689;51.052;13.772;2023-02-13T02:49:17;102490.50;;;5.93;91.33
19114;BME280;9689;51.052;13.772;2023-02-13T02:54:39;102492.78;;;6.09;90.62
19114;BME280;9689;51.052;13.772;2023-02-13T03:00:04;102494.28;;;6.03;90.61
19114;BME280;9689;51.052;13.772;2023-02-13T03:05:26;102491.78;;;6.06;91.21
19114;BME280;9689;51.052;13.772;2023-02-13T03:10:46;102494.94;;;5.97;90.72
19114;BME280;9689;51.052;13.772;2023-02-13T03:16:04;102497.69;;;6.02;91.48
19114;BME280;9689;51.052;13.772;2023-02-13T03:21:31;102501.16;;;6.02;90.77
19114;BME280;9689;51.052;13.772;2023-02-13T03:26:57;102507.22;;;6.03;90.65
19114;BME280;9689;51.052;13.772;2023-02-13T03:32:03;102503.84;;;6.05;91.27
19114;BME280;9689;51.052;13.772;2023-02-13T03:37:09;102498.00;;;6.11;90.40
19114;BME280;9689;51.052;13.772;2023-02-13T03:42:32;102497.56;;;5.99;90.85
19114;BME280;9689;51.052;13.772;2023-02-13T03:47:36;102499.53;;;6.06;90.97
19114;BME280;9689;51.052;13.772;2023-02-13T03:52:43;102509.06;;;6.07;91.12
19114;BME280;9689;51.052;13.772;2023-02-13T03:57:47;102505.41;;;6.00;90.80
19114;BME280;9689;51.052;13.772;2023-02-13T04:03:13;102504.44;;;5.98;91.75
19114;BME280;9689;51.052;13.772;2023-02-13T04:08:16;102502.00;;;6.01;91.69
19114;BME280;9689;51.052;13.772;2023-02-13T04:13:21;102505.09;;;5.91;91.19
19114;BME280;9689;51.052;13.772;2023-02-13T04:18:28;102506.69;;;5.89;91.51
19114;BME280;9689;51.052;13.772;2023-02-13T04:23:31;102505.88;;;5.90;92.13
19114;BME280;9689;51.052;13.772;2023-02-13T04:28:35;102493.97;;;5.93;92.11
19114;BME280;9689;51.052;13.772;2023-02-13T04:33:36;102500.84;;;5.93;91.69
19114;BME280;9689;51.052;13.772;2023-02-13T04:38:38;102498.31;;;5.94;91.49
19114;BME280;9689;51.052;13.772;2023-02-13T04:43:38;102497.88;;;5.82;91.49
19114;BME280;9689;51.052;13.772;2023-02-13T04:48:39;102499.50;;;5.80;91.10
19114;BME280;9689;51.052;13.772;2023-02-13T04:53:41;102500.94;;;5.72;92.25
19114;BME280;9689;51.052;13.772;2023-02-13T04:58:42;102502.59;;;5.70;92.33
19114;BME280;9689;51.052;13.772;2023-02-13T05:03:42;102493.25;;;5.74;92.50
19114;BME280;9689;51.052;13.772;2023-02-13T05:08:44;102498.16;;;5.66;91.61
19114;BME280;9689;51.052;13.772;2023-02-13T05:13:45;102490.81;;;5.78;93.02
19114;BME280;9689;51.052;13.772;2023-02-13T05:18:46;102498.34;;;5.72;91.83
19114;BME280;9689;51.052;13.772;2023-02-13T05:23:48;102500.59;;;5.63;92.94
19114;BME280;9689;51.052;13.772;2023-02-13T05:28:48;102505.91;;;5.66;92.32
19114;BME280;9689;51.052;13.772;2023-02-13T05:34:07;102503.97;;;5.60;92.99
19114;BME280;9689;51.052;13.772;2023-02-13T05:39:09;102505.63;;;5.58;92.96
19114;BME280;9689;51.052;13.772;2023-02-13T05:44:10;102497.19;;;5.64;92.63
19114;BME280;9689;51.052;13.772;2023-02-13T05:49:13;102500.59;;;5.63;92.31
19114;BME280;9689;51.052;13.772;2023-02-13T05:54:15;102501.44;;;5.62;92.64
19114;BME280;9689;51.052;13.772;2023-02-13T05:59:16;102503.19;;;5.63;91.64
19114;BME280;9689;51.052;13.772;2023-02-13T06:04:17;102503.25;;;5.64;91.66
19114;BME280;9689;51.052;13.772;2023-02-13T06:09:19;102507.66;;;5.67;92.39
19114;BME280;9689;51.052;13.772;2023-02-13T06:14:20;102509.25;;;5.63;91.65
19114;BME280;9689;51.052;13.772;2023-02-13T06:19:20;102518.75;;;5.64;91.54
19114;BME280;9689;51.052;13.772;2023-02-13T06:24:23;102514.66;;;5.70;91.33
19114;BME280;9689;51.052;13.772;2023-02-13T06:29:23;102519.88;;;5.71;91.94
19114;BME280;9689;51.052;13.772;2023-02-13T06:34:24;102522.47;;;5.71;90.88
19114;BME280;9689;51.052;13.772;2023-02-13T06:39:26;102524.34;;;5.75;91.79
19114;BME280;9689;51.052;13.772;2023-02-13T06:44:27;102535.75;;;5.82;91.49
19114;BME280;9689;51.052;13.772;2023-02-13T06:49:28;102535.84;;;5.83;90.75
19114;BME280;9689;51.052;13.772;2023-02-13T06:54:29;102543.47;;;5.80;90.60
19114;BME280;9689;51.052;13.772;2023-02-13T06:59:45;102542.78;;;5.84;89.22
19114;BME280;9689;51.052;13.772;2023-02-13T07:04:46;102548.56;;;5.77;90.33
19114;BME280;9689;51.052;13.772;2023-02-13T07:09:48;102553.72;;;5.77;90.09
19114;BME280;9689;51.052;13.772;2023-02-13T07:14:48;102556.53;;;5.83;90.14
19114;BME280;9689;51.052;13.772;2023-02-13T07:19:49;102548.78;;;5.83;89.84
19114;BME280;9689;51.052;13.772;2023-02-13T07:24:51;102547.13;;;5.85;89.96
19114;BME280;9689;51.052;13.772;2023-02-13T07:29:52;102553.16;;;5.86;89.21
19114;BME280;9689;51.052;13.772;2023-02-13T07:34:53;102551.72;;;5.92;89.48
19114;BME280;9689;51.052;13.772;2023-02-13T07:40:02;102548.09;;;5.89;89.18
19114;BME280;9689;51.052;13.772;2023-02-13T07:45:05;102549.75;;;5.87;88.46
19114;BME280;9689;51.052;13.772;2023-02-13T07:50:07;102557.88;;;5.96;89.02
19114;BME280;9689;51.052;13.772;2023-02-13T07:55:09;102554.38;;;5.94;88.16
19114;BME280;9689;51.052;13.772;2023-02-13T08:00:12;102562.06;;;5.92;88.46
19114;BME280;9689;51.052;13.772;2023-02-13T08:05:13;102562.59;;;5.84;88.92
19114;BME280;9689;51.052;13.772;2023-02-13T08:10:16;102563.06;;;5.96;88.14
19114;BME280;9689;51.052;13.772;2023-02-13T08:15:34;102570.22;;;6.03;87.35
19114;BME280;9689;51.052;13.772;2023-02-13T08:20:35;102577.09;;;6.03;87.54
19114;BME280;9689;51.052;13.772;2023-02-13T08:25:37;102566.00;;;6.07;86.49
19114;BME280;9689;51.052;13.772;2023-02-13T08:30:39;102560.13;;;6.11;86.43
19114;BME280;9689;51.052;13.772;2023-02-13T08:35:39;102564.13;;;6.27;86.25
19114;BME280;9689;51.052;13.772;2023-02-13T08:40:41;102572.16;;;6.34;86.30
19114;BME280;9689;51.052;13.772;2023-02-13T08:45:42;102574.88;;;6.39;85.67
19114;BME280;9689;51.052;13.772;2023-02-13T08:50:43;102575.72;;;6.38;85.38
19114;BME280;9689;51.052;13.772;2023-02-13T08:55:51;102561.00;;;6.37;84.40
19114;BME280;9689;51.052;13.772;2023-02-13T09:00:53;102572.56;;;6.46;83.62
19114;BME280;9689;51.052;13.772;2023-02-13T09:05:57;102572.81;;;6.54;84.11
19114;BME280;9689;51.052;13.772;2023-02-13T09:11:01;102581.38;;;6.51;83.62
19114;BME280;9689;51.052;13.772;2023-02-13T09:16:03;102590.19;;;6.58;84.11
19114;BME280;9689;51.052;13.772;2023-02-13T09:21:06;102578.25;;;6.62;83.83
19114;BME280;9689;51.052;13.772;2023-02-13T09:26:11;102585.09;;;6.87;82.88
19114;BME280;9689;51.052;13.772;2023-02-13T09:31:16;102579.56;;;6.76;83.16
19114;BME280;9689;51.052;13.772;2023-02-13T09:36:19;102584.78;;;6.77;83.00
19114;BME280;9689;51.052;13.772;2023-02-13T09:41:23;102582.13;;;6.76;82.91
19114;BME280;9689;51.052;13.772;2023-02-13T09:46:27;102589.31;;;6.85;82.84
19114;BME280;9689;51.052;13.772;2023-02-13T09:51:29;102587.19;;;6.98;81.40
19114;BME280;9689;51.052;13.772;2023-02-13T09:56:39;102599.91;;;6.91;81.89
19114;BME280;9689;51.052;13.772;2023-02-13T10:01:43;102593.09;;;7.21;81.04
19114;BME280;9689;51.052;13.772;2023-02-13T10:06:47;102603.94;;;7.38;78.93
19114;BME280;9689;51.052;13.772;2023-02-13T10:12:07;102602.47;;;7.46;78.93
19114;BME280;9689;51.052;13.772;2023-02-13T10:17:15;102597.69;;;7.60;78.44
19114;BME280;9689;51.052;13.772;2023-02-13T10:22:20;102592.22;;;7.81;77.77
19114;BME280;9689;51.052;13.772;2023-02-13T10:27:28;102592.72;;;7.68;77.59
19114;BME280;9689;51.052;13.772;2023-02-13T10:32:37;102585.56;;;7.90;77.00
19114;BME280;9689;51.052;13.772;2023-02-13T10:37:42;102576.47;;;8.06;76.58
19114;BME280;9689;51.052;13.772;2023-02-13T10:42:45;102567.31;;;8.19;75.74
19114;BME280;9689;51.052;13.772;2023-02-13T10:48:01;102561.50;;;8.29;74.35
19114;BME280;9689;51.052;13.772;2023-02-13T10:53:12;102546.66;;;8.25;74.38
19114;BME280;9689;51.052;13.772;2023-02-13T10:58:19;102540.78;;;8.32;73.02
19114;BME280;9689;51.052;13.772;2023-02-13T11:03:23;102529.06;;;8.13;72.71
19114;BME280;9689;51.052;13.772;2023-02-13T11:08:26;102538.09;;;7.94;72.97
19114;BME280;9689;51.052;13.772;2023-02-13T11:13:31;102542.75;;;7.75;74.07
19114;BME280;9689;51.052;13.772;2023-02-13T11:18:33;102543.47;;;7.69;74.25
19114;BME280;9689;51.052;13.772;2023-02-13T11:23:39;102537.13;;;7.59;74.21
19114;BME280;9689;51.052;13.772;2023-02-13T11:28:50;102536.91;;;7.52;74.48
19114;BME280;9689;51.052;13.772;2023-02-13T11:33:53;102531.47;;;7.43;74.22
19114;BME280;9689;51.052;13.772;2023-02-13T11:38:59;102541.00;;;7.44;74.53
19114;BME280;9689;51.052;13.772;2023-02-13T11:44:02;102528.88;;;7.43;74.07
19114;BME280;9689;51.052;13.772;2023-02-13T11:49:05;102522.19;;;7.51;74.36
19114;BME280;9689;51.052;13.772;2023-02-13T11:54:27;102517.56;;;7.72;73.55
19114;BME280;9689;51.052;13.772;2023-02-13T11:59:32;102514.66;;;7.91;73.49
19114;BME280;9689;51.052;13.772;2023-02-13T12:04:38;102507.84;;;7.97;73.16
19114;BME280;9689;51.052;13.772;2023-02-13T12:09:40;102501.31;;;7.78;71.76
19114;BME280;9689;51.052;13.772;2023-02-13T12:14:43;102492.34;;;7.67;72.28
19114;BME280;9689;51.052;13.772;2023-02-13T12:19:47;102497.00;;;7.78;72.18
19114;BME280;9689;51.052;13.772;2023-02-13T12:25:16;102491.88;;;7.81;72.13
19114;BME280;9689;51.052;13.772;2023-02-13T12:30:40;102481.19;;;8.02;71.96
19114;BME280;9689;51.052;13.772;2023-02-13T12:35:52;102478.69;;;8.07;71.23
19114;BME280;9689;51.052;13.772;2023-02-13T12:41:12;102469.94;;;8.03;71.72
19114;BME280;9689;51.052;13.772;2023-02-13T12:46:21;102465.44;;;8.31;70.79
19114;BME280;9689;51.052;13.772;2023-02-13T12:51:33;102466.31;;;8.31;70.04
19114;BME280;9689;51.052;13.772;2023-02-13T12:56:51;102469.47;;;8.18;70.34
19114;BME280;9689;51.052;13.772;2023-02-13T13:07:47;102463.50;;;8.23;69.18
19114;BME280;9689;51.052;13.772;2023-02-13T13:12:57;102455.44;;;8.11;69.54
19114;BME280;9689;51.052;13.772;2023-02-13T13:18:22;102463.47;;;8.20;69.06
19114;BME280;9689;51.052;13.772;2023-02-13T13:23:31;102459.31;;;7.92;69.61
19114;BME280;9689;51.052;13.772;2023-02-13T13:28:38;102458.31;;;7.89;69.53
19114;BME280;9689;51.052;13.772;2023-02-13T13:33:44;102468.63;;;7.86;70.34
19114;BME280;9689;51.052;13.772;2023-02-13T13:38:51;102463.94;;;7.73;70.75
19114;BME280;9689;51.052;13.772;2023-02-13T13:44:12;102463.91;;;7.71;70.62
19114;BME280;9689;51.052;13.772;2023-02-13T13:49:28;102475.88;;;7.64;71.07
19114;BME280;9689;51.052;13.772;2023-02-13T13:54:34;102467.31;;;7.69;70.31
19114;BME280;9689;51.052;13.772;2023-02-13T14:05:22;102461.88;;;7.59;70.60
19114;BME280;9689;51.052;13.772;2023-02-13T14:16:09;102467.88;;;7.57;69.20
19114;BME280;9689;51.052;13.772;2023-02-13T14:21:21;102471.34;;;7.57;69.12
19114;BME280;9689;51.052;13.772;2023-02-13T14:26:36;102464.69;;;7.67;69.31
19114;BME280;9689;51.052;13.772;2023-02-13T14:31:40;102462.81;;;7.61;69.71
19114;BME280;9689;51.052;13.772;2023-02-13T14:36:45;102466.16;;;7.57;70.62
19114;BME280;9689;51.052;13.772;2023-02-13T14:41:57;102473.22;;;7.31;71.19
19114;BME280;9689;51.052;13.772;2023-02-13T14:47:02;102466.03;;;7.21;71.91
19114;BME280;9689;51.052;13.772;2023-02-13T14:52:06;102448.38;;;7.09;72.64
19114;BME280;9689;51.052;13.772;2023-02-13T14:57:13;102445.91;;;7.13;73.48
19114;BME280;9689;51.052;13.772;2023-02-13T15:02:20;102442.75;;;6.94;74.31
19114;BME280;9689;51.052;13.772;2023-02-13T15:07:25;102436.63;;;6.91;74.52
19114;BME280;9689;51.052;13.772;2023-02-13T15:12:29;102423.72;;;6.94;74.63
19114;BME280;9689;51.052;13.772;2023-02-13T15:17:32;102423.56;;;6.88;74.93
19114;BME280;9689;51.052;13.772;2023-02-13T15:22:40;102435.75;;;6.62;75.59
19114;BME280;9689;51.052;13.772;2023-02-13T15:27:44;102418.50;;;6.62;75.78
19114;BME280;9689;51.052;13.772;2023-02-13T15:32:52;102421.06;;;6.61;76.19
19114;BME280;9689;51.052;13.772;2023-02-13T15:37:55;102407.63;;;6.45;76.87
19114;BME280;9689;51.052;13.772;2023-02-13T15:42:57;102413.88;;;6.52;76.78
19114;BME280;9689;51.052;13.772;2023-02-13T15:47:58;102407.09;;;6.57;76.10
19114;BME280;9689;51.052;13.772;2023-02-13T15:53:03;102416.94;;;6.40;76.58
19114;BME280;9689;51.052;13.772;2023-02-13T15:58:05;102434.41;;;6.46;76.98
19114;BME280;9689;51.052;13.772;2023-02-13T16:03:14;102436.16;;;6.47;76.42
19114;BME280;9689;51.052;13.772;2023-02-13T16:08:27;102425.00;;;6.49;76.95
19114;BME280;9689;51.052;13.772;2023-02-13T16:13:28;102435.91;;;6.39;76.47
19114;BME280;9689;51.052;13.772;2023-02-13T16:18:28;102424.59;;;6.36;76.95
19114;BME280;9689;51.052;13.772;2023-02-13T16:23:30;102417.59;;;6.33;77.05
19114;BME280;9689;51.052;13.772;2023-02-13T16:28:32;102419.31;;;6.33;77.28
19114;BME280;9689;51.052;13.772;2023-02-13T16:33:34;102427.06;;;6.33;77.74
19114;BME280;9689;51.052;13.772;2023-02-13T16:38:39;102423.50;;;6.29;77.43
19114;BME280;9689;51.052;13.772;2023-02-13T16:43:43;102429.38;;;6.23;77.86
19114;BME280;9689;51.052;13.772;2023-02-13T16:48:46;102432.94;;;6.27;77.96
19114;BME280;9689;51.052;13.772;2023-02-13T16:53:58;102421.47;;;6.19;77.52
19114;BME280;9689;51.052;13.772;2023-02-13T16:59:13;102430.00;;;6.16;77.45
19114;BME280;9689;51.052;13.772;2023-02-13T17:04:21;102410.72;;;6.07;78.95
19114;BME280;9689;51.052;13.772;2023-02-13T17:09:23;102413.41;;;6.10;77.85
19114;BME280;9689;51.052;13.772;2023-02-13T17:14:24;102411.66;;;6.09;77.87
19114;BME280;9689;51.052;13.772;2023-02-13T17:19:25;102413.22;;;6.04;78.74
19114;BME280;9689;51.052;13.772;2023-02-13T17:24:29;102406.53;;;6.10;78.05
19114;BME280;9689;51.052;13.772;2023-02-13T17:29:30;102407.28;;;6.08;78.44
19114;BME280;9689;51.052;13.772;2023-02-13T17:34:31;102405.06;;;6.18;79.73
19114;BME280;9689;51.052;13.772;2023-02-13T17:39:33;102401.19;;;6.06;79.34
19114;BME280;9689;51.052;13.772;2023-02-13T17:44:34;102415.88;;;6.07;78.68
19114;BME280;9689;51.052;13.772;2023-02-13T17:49:34;102425.19;;;6.00;78.36
19114;BME280;9689;51.052;13.772;2023-02-13T17:54:36;102409.94;;;6.09;78.77
19114;BME280;9689;51.052;13.772;2023-02-13T17:59:37;102401.38;;;6.12;79.00
19114;BME280;9689;51.052;13.772;2023-02-13T18:04:38;102399.13;;;5.95;78.38
19114;BME280;9689;51.052;13.772;2023-02-13T18:09:41;102407.94;;;6.01;78.77
19114;BME280;9689;51.052;13.772;2023-02-13T18:14:41;102422.09;;;6.12;79.23
19114;BME280;9689;51.052;13.772;2023-02-13T18:19:42;102420.75;;;5.98;78.88
19114;BME280;9689;51.052;13.772;2023-02-13T18:24:45;102430.28;;;5.99;78.73
19114;BME280;9689;51.052;13.772;2023-02-13T18:29:46;102426.81;;;5.98;78.74
19114;BME280;9689;51.052;13.772;2023-02-13T18:34:47;102419.94;;;5.99;79.00
19114;BME280;9689;51.052;13.772;2023-02-13T18:39:50;102421.50;;;5.93;78.58
19114;BME280;9689;51.052;13.772;2023-02-13T18:44:50;102422.38;;;5.94;78.78
19114;BME280;9689;51.052;13.772;2023-02-13T18:49:51;102421.25;;;5.87;79.33
19114;BME280;9689;51.052;13.772;2023-02-13T18:54:53;102395.59;;;5.92;79.68
19114;BME280;9689;51.052;13.772;2023-02-13T18:59:54;102400.69;;;5.90;80.03
19114;BME280;9689;51.052;13.772;2023-02-13T19:04:55;102403.19;;;5.89;79.50
19114;BME280;9689;51.052;13.772;2023-02-13T19:09:57;102389.28;;;5.85;79.04
19114;BME280;9689;51.052;13.772;2023-02-13T19:14:57;102395.91;;;5.77;80.41
19114;BME280;9689;51.052;13.772;2023-02-13T19:19:58;102392.44;;;5.77;80.63
19114;BME280;9689;51.052;13.772;2023-02-13T19:25:00;102395.88;;;5.76;80.96
19114;BME280;9689;51.052;13.772;2023-02-13T19:30:01;102414.69;;;5.72;79.86
19114;BME280;9689;51.052;13.772;2023-02-13T19:35:04;102427.78;;;5.76;80.29
19114;BME280;9689;51.052;13.772;2023-02-13T19:40:07;102425.03;;;5.72;79.90
19114;BME280;9689;51.052;13.772;2023-02-13T19:45:08;102432.69;;;5.92;82.07
19114;BME280;9689;51.052;13.772;2023-02-13T19:50:10;102436.69;;;5.84;80.18
19114;BME280;9689;51.052;13.772;2023-02-13T19:55:12;102433.75;;;5.74;80.42
19114;BME280;9689;51.052;13.772;2023-02-13T20:00:14;102437.22;;;5.74;80.15
19114;BME280;9689;51.052;13.772;2023-02-13T20:05:15;102432.97;;;5.76;80.52
19114;BME280;9689;51.052;13.772;2023-02-13T20:10:17;102429.31;;;5.71;80.93
19114;BME280;9689;51.052;13.772;2023-02-13T20:15:18;102434.78;;;5.79;79.95
19114;BME280;9689;51.052;13.772;2023-02-13T20:20:19;102439.00;;;5.77;80.57
19114;BME280;9689;51.052;13.772;2023-02-13T20:25:21;102438.00;;;5.73;80.34
19114;BME280;9689;51.052;13.772;2023-02-13T20:30:24;102446.56;;;5.71;81.45
19114;BME280;9689;51.052;13.772;2023-02-13T20:35:24;102440.00;;;5.80;80.44
19114;BME280;9689;51.052;13.772;2023-02-13T20:40:26;102439.50;;;5.90;80.20
19114;BME280;9689;51.052;13.772;2023-02-13T20:45:27;102438.59;;;5.90;80.21
19114;BME280;9689;51.052;13.772;2023-02-13T20:50:28;102444.75;;;5.92;79.95
19114;BME280;9689;51.052;13.772;2023-02-13T20:55:30;102440.44;;;5.92;79.80
19114;BME280;9689;51.052;13.772;2023-02-13T21:00:31;102448.88;;;5.88;79.46
19114;BME280;9689;51.052;13.772;2023-02-13T21:05:31;102445.63;;;5.92;79.21
19114;BME280;9689;51.052;13.772;2023-02-13T21:10:36;102449.97;;;5.93;80.17
19114;BME280;9689;51.052;13.772;2023-02-13T21:15:37;102450.19;;;6.00;78.98
19114;BME280;9689;51.052;13.772;2023-02-13T21:20:37;102448.22;;;5.92;79.30
19114;BME280;9689;51.052;13.772;2023-02-13T21:25:39;102443.13;;;5.95;79.34
19114;BME280;9689;51.052;13.772;2023-02-13T21:30:40;102447.47;;;5.97;79.65
19114;BME280;9689;51.052;13.772;2023-02-13T21:35:41;102447.97;;;5.86;79.71
19114;BME280;9689;51.052;13.772;2023-02-13T21:40:43;102451.38;;;5.85;79.92
19114;BME280;9689;51.052;13.772;2023-02-13T21:45:44;102444.53;;;5.87;79.93
19114;BME280;9689;51.052;13.772;2023-02-13T21:50:45;102445.34;;;5.85;79.22
19114;BME280;9689;51.052;13.772;2023-02-13T21:55:47;102443.88;;;5.91;79.98
19114;BME280;9689;51.052;13.772;2023-02-13T22:00:47;102436.25;;;5.96;79.88
19114;BME280;9689;51.052;13.772;2023-02-13T22:05:49;102446.78;;;5.77;80.25
19114;BME280;9689;51.052;13.772;2023-02-13T22:10:55;102446.03;;;5.81;79.60
19114;BME280;9689;51.052;13.772;2023-02-13T22:15:58;102449.84;;;5.90;80.24
19114;BME280;9689;51.052;13.772;2023-02-13T22:21:02;102451.47;;;5.88;79.84
19114;BME280;9689;51.052;13.772;2023-02-13T22:26:06;102452.59;;;5.95;78.93
19114;BME280;9689;51.052;13.772;2023-02-13T22:31:08;102466.03;;;5.85;79.77
19114;BME280;9689;51.052;13.772;2023-02-13T22:36:09;102458.31;;;5.86;79.41
19114;BME280;9689;51.052;13.772;2023-02-13T22:41:13;102462.56;;;5.84;79.01
19114;BME280;9689;51.052;13.772;2023-02-13T22:46:16;102468.56;;;5.83;80.21
19114;BME280;9689;51.052;13.772;2023-02-13T22:51:19;102478.31;;;5.90;79.94
19114;BME280;9689;51.052;13.772;2023-02-13T22:56:22;102480.78;;;5.87;79.87
19114;BME280;9689;51.052;13.772;2023-02-13T23:01:25;102487.75;;;5.90;79.73
19114;BME280;9689;51.052;13.772;2023-02-13T23:06:27;102486.16;;;5.92;80.43
19114;BME280;9689;51.052;13.772;2023-02-13T23:11:29;102491.31;;;5.92;79.46
19114;BME280;9689;51.052;13.772;2023-02-13T23:16:47;102496.84;;;5.79;80.27
19114;BME280;9689;51.052;13.772;2023-02-13T23:22:05;102490.97;;;5.83;80.85
19114;BME280;9689;51.052;13.772;2023-02-13T23:27:07;102492.03;;;5.89;80.28
19114;BME280;9689;51.052;13.772;2023-02-13T23:32:08;102493.72;;;5.87;80.32
19114;BME280;9689;51.052;13.772;2023-02-13T23:37:09;102493.09;;;5.93;80.89
19114;BME280;9689;51.052;13.772;2023-02-13T23:42:11;102486.06;;;5.90;80.31
19114;BME280;9689;51.052;13.772;2023-02-13T23:47:12;102485.94;;;5.87;80.83
19114;BME280;9689;51.052;13.772;2023-02-13T23:52:12;102486.06;;;5.90;79.73
19114;BME280;9689;51.052;13.772;2023-02-13T23:57:15;102479.97;;;5.90;80.40
